sensor_id;sensor_type;location;lat;lon;timestamp;temperature;humidity
10282;DHT22;5186;59.472;18.048;2024-02-04T00:00:34;4.30;99.90
10282;DHT22;5186;59.472;18.048;2024-02-04T00:03:00;4.30;99.90
10282;DHT22;5186;59.472;18.048;2024-02-04T00:05:26;4.40;99.90
10282;DHT22;5186;59.472;18.048;2024-02-04T00:07:51;4.40;99.90
10282;DHT22;5186;59.472;18.048;2024-02-04T00:10:17;4.30;99.90
10282;DHT22;5186;59.472;18.048;2024-02-04T00:12:44;4.40;99.90
10282;DHT22;5186;59.472;18.048;2024-02-04T00:15:09;4.40;99.90
10282;DHT22;5186;59.472;18.048;2024-02-04T00:17:35;4.40;99.90
10282;DHT22;5186;59.472;18.048;2024-02-04T00:20:02;4.40;99.90
10282;DHT22;5186;59.472;18.048;2024-02-04T00:22:31;4.30;99.90
10282;DHT22;5186;59.472;18.048;2024-02-04T00:24:57;4.40;99.90
10282;DHT22;5186;59.472;18.048;2024-02-04T00:27:27;4.30;99.90
10282;DHT22;5186;59.472;18.048;2024-02-04T00:29:52;4.40;99.90
10282;DHT22;5186;59.472;18.048;2024-02-04T00:32:18;4.40;99.90
10282;DHT22;5186;59.472;18.048;2024-02-04T00:34:43;4.40;99.90
10282;DHT22;5186;59.472;18.048;2024-02-04T00:37:09;4.40;99.90
10282;DHT22;5186;59.472;18.048;2024-02-04T00:39:35;4.40;99.90
10282;DHT22;5186;59.472;18.048;2024-02-04T00:42:00;4.30;99.90
10282;DHT22;5186;59.472;18.048;2024-02-04T00:44:26;4.40;99.90
10282;DHT22;5186;59.472;18.048;2024-02-04T00:46:52;4.40;99.90
10282;DHT22;5186;59.472;18.048;2024-02-04T00:49:17;4.30;99.90
10282;DHT22;5186;59.472;18.048;2024-02-04T00:51:43;4.40;99.90
10282;DHT22;5186;59.472;18.048;2024-02-04T00:54:09;4.40;99.90
10282;DHT22;5186;59.472;18.048;2024-02-04T00:56:35;4.40;99.90
10282;DHT22;5186;59.472;18.048;2024-02-04T00:59:00;4.30;99.90
10282;DHT22;5186;59.472;18.048;2024-02-04T01:01:26;4.30;99.90
10282;DHT22;5186;59.472;18.048;2024-02-04T01:03:52;4.30;99.90
10282;DHT22;5186;59.472;18.048;2024-02-04T01:06:17;4.30;99.90
10282;DHT22;5186;59.472;18.048;2024-02-04T01:08:43;4.30;99.90
10282;DHT22;5186;59.472;18.048;2024-02-04T01:11:08;4.30;99.90
10282;DHT22;5186;59.472;18.048;2024-02-04T01:13:34;4.30;99.90
10282;DHT22;5186;59.472;18.048;2024-02-04T01:16:00;4.30;99.90
10282;DHT22;5186;59.472;18.048;2024-02-04T01:18:25;4.30;99.90
10282;DHT22;5186;59.472;18.048;2024-02-04T01:20:51;4.30;99.90
10282;DHT22;5186;59.472;18.048;2024-02-04T01:23:16;4.30;99.90
10282;DHT22;5186;59.472;18.048;2024-02-04T01:25:44;4.30;99.90
10282;DHT22;5186;59.472;18.048;2024-02-04T01:28:10;4.30;99.90
10282;DHT22;5186;59.472;18.048;2024-02-04T01:30:35;4.30;99.90
10282;DHT22;5186;59.472;18.048;2024-02-04T01:33:02;4.30;99.90
10282;DHT22;5186;59.472;18.048;2024-02-04T01:35:28;4.30;99.90
10282;DHT22;5186;59.472;18.048;2024-02-04T01:37:54;4.30;99.90
10282;DHT22;5186;59.472;18.048;2024-02-04T01:40:20;4.30;99.90
10282;DHT22;5186;59.472;18.048;2024-02-04T01:42:46;4.30;99.90
10282;DHT22;5186;59.472;18.048;2024-02-04T01:45:11;4.30;99.90
10282;DHT22;5186;59.472;18.048;2024-02-04T01:47:37;4.30;99.90
10282;DHT22;5186;59.472;18.048;2024-02-04T01:50:03;4.30;99.90
10282;DHT22;5186;59.472;18.048;2024-02-04T01:52:33;4.30;99.90
10282;DHT22;5186;59.472;18.048;2024-02-04T01:55:03;4.30;99.90
10282;DHT22;5186;59.472;18.048;2024-02-04T01:57:30;4.20;99.90
10282;DHT22;5186;59.472;18.048;2024-02-04T01:59:56;4.20;99.90
10282;DHT22;5186;59.472;18.048;2024-02-04T02:02:23;4.20;99.90
10282;DHT22;5186;59.472;18.048;2024-02-04T02:04:51;4.20;99.90
10282;DHT22;5186;59.472;18.048;2024-02-04T02:07:18;4.20;99.90
10282;DHT22;5186;59.472;18.048;2024-02-04T02:09:46;4.20;99.90
10282;DHT22;5186;59.472;18.048;2024-02-04T02:12:16;4.20;99.90
10282;DHT22;5186;59.472;18.048;2024-02-04T02:14:46;4.20;99.90
10282;DHT22;5186;59.472;18.048;2024-02-04T02:17:16;4.20;99.90
10282;DHT22;5186;59.472;18.048;2024-02-04T02:25:03;4.20;99.90
10282;DHT22;5186;59.472;18.048;2024-02-04T02:27:30;4.20;99.90
10282;DHT22;5186;59.472;18.048;2024-02-04T02:29:56;4.20;99.90
10282;DHT22;5186;59.472;18.048;2024-02-04T02:32:22;4.20;99.90
10282;DHT22;5186;59.472;18.048;2024-02-04T02:34:48;4.20;99.90
10282;DHT22;5186;59.472;18.048;2024-02-04T02:37:36;4.10;99.90
10282;DHT22;5186;59.472;18.048;2024-02-04T02:40:35;4.10;99.90
10282;DHT22;5186;59.472;18.048;2024-02-04T02:43:03;4.10;99.90
10282;DHT22;5186;59.472;18.048;2024-02-04T02:45:30;4.00;99.90
10282;DHT22;5186;59.472;18.048;2024-02-04T02:47:57;4.10;99.90
10282;DHT22;5186;59.472;18.048;2024-02-04T02:50:23;4.00;99.90
10282;DHT22;5186;59.472;18.048;2024-02-04T02:52:49;4.00;99.90
10282;DHT22;5186;59.472;18.048;2024-02-04T02:55:15;4.00;99.90
10282;DHT22;5186;59.472;18.048;2024-02-04T02:57:40;4.00;99.90
10282;DHT22;5186;59.472;18.048;2024-02-04T03:00:06;4.00;99.90
10282;DHT22;5186;59.472;18.048;2024-02-04T03:02:33;4.00;99.90
10282;DHT22;5186;59.472;18.048;2024-02-04T03:04:58;4.00;99.90
10282;DHT22;5186;59.472;18.048;2024-02-04T03:07:24;4.00;99.90
10282;DHT22;5186;59.472;18.048;2024-02-04T03:09:49;4.00;99.90
10282;DHT22;5186;59.472;18.048;2024-02-04T03:12:15;4.00;99.90
10282;DHT22;5186;59.472;18.048;2024-02-04T03:14:41;4.00;99.90
10282;DHT22;5186;59.472;18.048;2024-02-04T03:17:06;4.00;99.90
10282;DHT22;5186;59.472;18.048;2024-02-04T03:19:32;3.90;99.90
10282;DHT22;5186;59.472;18.048;2024-02-04T03:21:57;3.90;99.90
10282;DHT22;5186;59.472;18.048;2024-02-04T03:24:23;3.90;99.90
10282;DHT22;5186;59.472;18.048;2024-02-04T03:26:48;3.90;99.90
10282;DHT22;5186;59.472;18.048;2024-02-04T03:29:14;3.90;99.90
10282;DHT22;5186;59.472;18.048;2024-02-04T03:31:40;3.90;99.90
10282;DHT22;5186;59.472;18.048;2024-02-04T03:34:05;3.90;99.90
10282;DHT22;5186;59.472;18.048;2024-02-04T03:36:31;3.90;99.90
10282;DHT22;5186;59.472;18.048;2024-02-04T03:38:57;3.80;99.90
10282;DHT22;5186;59.472;18.048;2024-02-04T03:41:23;3.80;99.90
10282;DHT22;5186;59.472;18.048;2024-02-04T03:43:48;3.90;99.90
10282;DHT22;5186;59.472;18.048;2024-02-04T03:46:15;3.80;99.90
10282;DHT22;5186;59.472;18.048;2024-02-04T03:48:41;3.80;99.90
10282;DHT22;5186;59.472;18.048;2024-02-04T03:51:06;3.80;99.90
10282;DHT22;5186;59.472;18.048;2024-02-04T03:53:33;3.80;99.90
10282;DHT22;5186;59.472;18.048;2024-02-04T03:55:58;3.70;99.90
10282;DHT22;5186;59.472;18.048;2024-02-04T03:58:24;3.70;99.90
10282;DHT22;5186;59.472;18.048;2024-02-04T04:00:57;3.70;99.90
10282;DHT22;5186;59.472;18.048;2024-02-04T04:03:23;3.70;99.90
10282;DHT22;5186;59.472;18.048;2024-02-04T04:05:49;3.70;99.90
10282;DHT22;5186;59.472;18.048;2024-02-04T04:08:15;3.70;99.90
10282;DHT22;5186;59.472;18.048;2024-02-04T04:10:41;3.60;99.90
10282;DHT22;5186;59.472;18.048;2024-02-04T04:13:07;3.60;99.90
10282;DHT22;5186;59.472;18.048;2024-02-04T04:15:32;3.60;99.90
10282;DHT22;5186;59.472;18.048;2024-02-04T04:17:58;3.60;99.90
10282;DHT22;5186;59.472;18.048;2024-02-04T04:20:24;3.50;99.90
10282;DHT22;5186;59.472;18.048;2024-02-04T04:22:49;3.50;99.90
10282;DHT22;5186;59.472;18.048;2024-02-04T04:25:15;3.50;99.90
10282;DHT22;5186;59.472;18.048;2024-02-04T04:27:42;3.50;99.90
10282;DHT22;5186;59.472;18.048;2024-02-04T04:30:08;3.50;99.90
10282;DHT22;5186;59.472;18.048;2024-02-04T04:32:34;3.50;99.90
10282;DHT22;5186;59.472;18.048;2024-02-04T04:34:59;3.40;99.90
10282;DHT22;5186;59.472;18.048;2024-02-04T04:37:25;3.40;99.90
10282;DHT22;5186;59.472;18.048;2024-02-04T04:39:51;3.40;99.90
10282;DHT22;5186;59.472;18.048;2024-02-04T04:42:16;3.40;99.90
10282;DHT22;5186;59.472;18.048;2024-02-04T04:44:42;3.30;99.90
10282;DHT22;5186;59.472;18.048;2024-02-04T04:47:07;3.30;99.90
10282;DHT22;5186;59.472;18.048;2024-02-04T04:49:33;3.30;99.90
10282;DHT22;5186;59.472;18.048;2024-02-04T04:51:58;3.40;99.90
10282;DHT22;5186;59.472;18.048;2024-02-04T04:54:24;3.30;99.90
10282;DHT22;5186;59.472;18.048;2024-02-04T04:56:50;3.30;99.90
10282;DHT22;5186;59.472;18.048;2024-02-04T04:59:17;3.30;99.90
10282;DHT22;5186;59.472;18.048;2024-02-04T05:01:46;3.30;99.90
10282;DHT22;5186;59.472;18.048;2024-02-04T05:04:12;3.20;99.90
10282;DHT22;5186;59.472;18.048;2024-02-04T05:06:37;3.20;99.90
10282;DHT22;5186;59.472;18.048;2024-02-04T05:09:03;3.20;99.90
10282;DHT22;5186;59.472;18.048;2024-02-04T05:11:28;3.20;99.90
10282;DHT22;5186;59.472;18.048;2024-02-04T05:13:54;3.20;99.90
10282;DHT22;5186;59.472;18.048;2024-02-04T05:16:20;3.20;99.90
10282;DHT22;5186;59.472;18.048;2024-02-04T05:18:45;3.20;99.90
10282;DHT22;5186;59.472;18.048;2024-02-04T05:21:11;3.20;99.90
10282;DHT22;5186;59.472;18.048;2024-02-04T05:23:37;3.20;99.90
10282;DHT22;5186;59.472;18.048;2024-02-04T05:26:03;3.20;99.90
10282;DHT22;5186;59.472;18.048;2024-02-04T05:28:30;3.20;99.90
10282;DHT22;5186;59.472;18.048;2024-02-04T05:30:56;3.20;99.90
10282;DHT22;5186;59.472;18.048;2024-02-04T05:33:21;3.10;99.90
10282;DHT22;5186;59.472;18.048;2024-02-04T05:35:47;3.10;99.90
10282;DHT22;5186;59.472;18.048;2024-02-04T05:38:13;3.10;99.90
10282;DHT22;5186;59.472;18.048;2024-02-04T05:40:38;3.10;99.90
10282;DHT22;5186;59.472;18.048;2024-02-04T05:43:04;3.10;99.90
10282;DHT22;5186;59.472;18.048;2024-02-04T05:45:37;3.10;99.90
10282;DHT22;5186;59.472;18.048;2024-02-04T05:48:07;3.10;99.90
10282;DHT22;5186;59.472;18.048;2024-02-04T05:50:32;3.10;99.90
10282;DHT22;5186;59.472;18.048;2024-02-04T05:52:58;3.00;99.90
10282;DHT22;5186;59.472;18.048;2024-02-04T05:55:23;3.00;99.90
10282;DHT22;5186;59.472;18.048;2024-02-04T05:57:49;3.10;99.90
10282;DHT22;5186;59.472;18.048;2024-02-04T06:00:15;3.10;99.90
10282;DHT22;5186;59.472;18.048;2024-02-04T06:02:41;3.00;99.90
10282;DHT22;5186;59.472;18.048;2024-02-04T06:05:12;3.00;99.90
10282;DHT22;5186;59.472;18.048;2024-02-04T06:07:38;3.00;99.90
10282;DHT22;5186;59.472;18.048;2024-02-04T06:10:03;3.00;99.90
10282;DHT22;5186;59.472;18.048;2024-02-04T06:12:30;3.00;99.90
10282;DHT22;5186;59.472;18.048;2024-02-04T06:14:55;2.90;99.90
10282;DHT22;5186;59.472;18.048;2024-02-04T06:17:21;2.90;99.90
10282;DHT22;5186;59.472;18.048;2024-02-04T06:19:47;2.90;99.90
10282;DHT22;5186;59.472;18.048;2024-02-04T06:22:13;2.90;99.90
10282;DHT22;5186;59.472;18.048;2024-02-04T06:24:39;2.90;99.90
10282;DHT22;5186;59.472;18.048;2024-02-04T06:27:07;2.80;99.90
10282;DHT22;5186;59.472;18.048;2024-02-04T06:29:33;2.80;99.90
10282;DHT22;5186;59.472;18.048;2024-02-04T06:31:59;2.80;99.90
10282;DHT22;5186;59.472;18.048;2024-02-04T06:34:25;2.80;99.90
10282;DHT22;5186;59.472;18.048;2024-02-04T06:36:50;2.80;99.90
10282;DHT22;5186;59.472;18.048;2024-02-04T06:39:16;2.80;99.90
10282;DHT22;5186;59.472;18.048;2024-02-04T06:41:42;2.80;99.90
10282;DHT22;5186;59.472;18.048;2024-02-04T06:44:07;2.70;99.90
10282;DHT22;5186;59.472;18.048;2024-02-04T06:46:33;2.70;99.90
10282;DHT22;5186;59.472;18.048;2024-02-04T06:48:59;2.70;99.90
10282;DHT22;5186;59.472;18.048;2024-02-04T06:51:24;2.70;99.90
10282;DHT22;5186;59.472;18.048;2024-02-04T06:53:50;2.70;99.90
10282;DHT22;5186;59.472;18.048;2024-02-04T06:56:16;2.70;99.90
10282;DHT22;5186;59.472;18.048;2024-02-04T06:58:42;2.70;99.90
10282;DHT22;5186;59.472;18.048;2024-02-04T07:01:08;2.60;99.90
10282;DHT22;5186;59.472;18.048;2024-02-04T07:03:34;2.60;99.90
10282;DHT22;5186;59.472;18.048;2024-02-04T07:06:00;2.70;99.90
10282;DHT22;5186;59.472;18.048;2024-02-04T07:08:26;2.60;99.90
10282;DHT22;5186;59.472;18.048;2024-02-04T07:10:52;2.60;99.90
10282;DHT22;5186;59.472;18.048;2024-02-04T07:13:18;2.60;99.90
10282;DHT22;5186;59.472;18.048;2024-02-04T07:15:44;2.60;99.90
10282;DHT22;5186;59.472;18.048;2024-02-04T07:18:10;2.70;99.90
10282;DHT22;5186;59.472;18.048;2024-02-04T07:20:37;2.60;99.90
10282;DHT22;5186;59.472;18.048;2024-02-04T07:23:03;2.70;99.90
10282;DHT22;5186;59.472;18.048;2024-02-04T07:25:29;2.70;99.90
10282;DHT22;5186;59.472;18.048;2024-02-04T07:27:55;2.60;99.90
10282;DHT22;5186;59.472;18.048;2024-02-04T07:30:22;2.70;99.90
10282;DHT22;5186;59.472;18.048;2024-02-04T07:32:47;2.70;99.90
10282;DHT22;5186;59.472;18.048;2024-02-04T07:35:13;2.70;99.90
10282;DHT22;5186;59.472;18.048;2024-02-04T07:37:38;2.70;99.90
10282;DHT22;5186;59.472;18.048;2024-02-04T07:40:05;2.70;99.90
10282;DHT22;5186;59.472;18.048;2024-02-04T07:42:31;2.80;99.90
10282;DHT22;5186;59.472;18.048;2024-02-04T07:44:57;2.70;99.90
10282;DHT22;5186;59.472;18.048;2024-02-04T07:47:23;2.70;99.90
10282;DHT22;5186;59.472;18.048;2024-02-04T07:49:49;2.70;99.90
10282;DHT22;5186;59.472;18.048;2024-02-04T07:52:15;2.80;99.90
10282;DHT22;5186;59.472;18.048;2024-02-04T07:54:41;2.70;99.90
10282;DHT22;5186;59.472;18.048;2024-02-04T07:57:08;2.80;99.90
10282;DHT22;5186;59.472;18.048;2024-02-04T07:59:34;2.80;99.90
10282;DHT22;5186;59.472;18.048;2024-02-04T08:02:00;2.80;99.90
10282;DHT22;5186;59.472;18.048;2024-02-04T08:04:26;2.80;99.90
10282;DHT22;5186;59.472;18.048;2024-02-04T08:06:52;2.80;99.90
10282;DHT22;5186;59.472;18.048;2024-02-04T08:09:18;2.90;99.90
10282;DHT22;5186;59.472;18.048;2024-02-04T08:11:43;2.90;99.90
10282;DHT22;5186;59.472;18.048;2024-02-04T08:14:09;2.90;99.90
10282;DHT22;5186;59.472;18.048;2024-02-04T08:16:35;2.90;99.90
10282;DHT22;5186;59.472;18.048;2024-02-04T08:19:00;2.90;99.90
10282;DHT22;5186;59.472;18.048;2024-02-04T08:21:26;2.90;99.90
10282;DHT22;5186;59.472;18.048;2024-02-04T08:23:52;2.90;99.90
10282;DHT22;5186;59.472;18.048;2024-02-04T08:26:17;3.00;99.90
10282;DHT22;5186;59.472;18.048;2024-02-04T08:28:43;3.00;99.90
10282;DHT22;5186;59.472;18.048;2024-02-04T08:31:09;2.90;99.90
10282;DHT22;5186;59.472;18.048;2024-02-04T08:33:35;3.00;99.90
10282;DHT22;5186;59.472;18.048;2024-02-04T08:36:00;3.00;99.90
10282;DHT22;5186;59.472;18.048;2024-02-04T08:38:26;3.00;99.90
10282;DHT22;5186;59.472;18.048;2024-02-04T08:40:52;3.00;99.90
10282;DHT22;5186;59.472;18.048;2024-02-04T08:43:17;3.00;99.90
10282;DHT22;5186;59.472;18.048;2024-02-04T08:45:43;3.10;99.90
10282;DHT22;5186;59.472;18.048;2024-02-04T08:48:08;3.10;99.90
10282;DHT22;5186;59.472;18.048;2024-02-04T08:50:34;3.10;99.90
10282;DHT22;5186;59.472;18.048;2024-02-04T08:53:00;3.10;99.90
10282;DHT22;5186;59.472;18.048;2024-02-04T08:55:25;3.10;99.90
10282;DHT22;5186;59.472;18.048;2024-02-04T08:57:51;3.10;99.90
10282;DHT22;5186;59.472;18.048;2024-02-04T09:00:19;3.10;99.90
10282;DHT22;5186;59.472;18.048;2024-02-04T09:02:45;3.20;99.90
10282;DHT22;5186;59.472;18.048;2024-02-04T09:05:12;3.20;99.90
10282;DHT22;5186;59.472;18.048;2024-02-04T09:07:37;3.20;99.90
10282;DHT22;5186;59.472;18.048;2024-02-04T09:10:04;3.30;99.90
10282;DHT22;5186;59.472;18.048;2024-02-04T09:12:30;3.30;99.90
10282;DHT22;5186;59.472;18.048;2024-02-04T09:14:57;3.30;99.90
10282;DHT22;5186;59.472;18.048;2024-02-04T09:17:22;3.40;99.90
10282;DHT22;5186;59.472;18.048;2024-02-04T09:19:48;3.40;99.90
10282;DHT22;5186;59.472;18.048;2024-02-04T09:22:14;3.40;99.90
10282;DHT22;5186;59.472;18.048;2024-02-04T09:24:40;3.50;99.90
10282;DHT22;5186;59.472;18.048;2024-02-04T09:27:05;3.50;99.90
10282;DHT22;5186;59.472;18.048;2024-02-04T09:29:31;3.50;99.90
10282;DHT22;5186;59.472;18.048;2024-02-04T09:31:56;3.50;99.90
10282;DHT22;5186;59.472;18.048;2024-02-04T09:34:22;3.50;99.90
10282;DHT22;5186;59.472;18.048;2024-02-04T09:36:48;3.50;99.90
10282;DHT22;5186;59.472;18.048;2024-02-04T09:39:13;3.50;99.90
10282;DHT22;5186;59.472;18.048;2024-02-04T09:41:39;3.50;99.90
10282;DHT22;5186;59.472;18.048;2024-02-04T09:44:06;3.50;99.90
10282;DHT22;5186;59.472;18.048;2024-02-04T09:46:31;3.50;99.90
10282;DHT22;5186;59.472;18.048;2024-02-04T09:48:57;3.50;99.90
10282;DHT22;5186;59.472;18.048;2024-02-04T09:51:25;3.60;99.90
10282;DHT22;5186;59.472;18.048;2024-02-04T09:53:52;3.60;99.90
10282;DHT22;5186;59.472;18.048;2024-02-04T09:56:20;3.60;99.90
10282;DHT22;5186;59.472;18.048;2024-02-04T09:58:47;3.60;99.90
10282;DHT22;5186;59.472;18.048;2024-02-04T10:01:14;3.60;99.90
10282;DHT22;5186;59.472;18.048;2024-02-04T10:03:41;3.60;99.90
10282;DHT22;5186;59.472;18.048;2024-02-04T10:06:06;3.60;99.90
10282;DHT22;5186;59.472;18.048;2024-02-04T10:08:32;3.60;99.90
10282;DHT22;5186;59.472;18.048;2024-02-04T10:10:59;3.60;99.90
10282;DHT22;5186;59.472;18.048;2024-02-04T10:13:25;3.60;99.90
10282;DHT22;5186;59.472;18.048;2024-02-04T10:15:51;3.60;99.90
10282;DHT22;5186;59.472;18.048;2024-02-04T10:18:17;3.60;99.90
10282;DHT22;5186;59.472;18.048;2024-02-04T10:20:43;3.60;99.90
10282;DHT22;5186;59.472;18.048;2024-02-04T10:23:09;3.60;99.90
10282;DHT22;5186;59.472;18.048;2024-02-04T10:25:35;3.70;99.90
10282;DHT22;5186;59.472;18.048;2024-02-04T10:28:01;3.70;99.90
10282;DHT22;5186;59.472;18.048;2024-02-04T10:30:27;3.70;99.90
10282;DHT22;5186;59.472;18.048;2024-02-04T10:32:53;3.70;99.90
10282;DHT22;5186;59.472;18.048;2024-02-04T10:35:22;3.70;99.90
10282;DHT22;5186;59.472;18.048;2024-02-04T10:37:49;3.70;99.90
10282;DHT22;5186;59.472;18.048;2024-02-04T10:40:16;3.70;99.90
10282;DHT22;5186;59.472;18.048;2024-02-04T10:42:43;3.70;99.90
10282;DHT22;5186;59.472;18.048;2024-02-04T10:45:09;3.70;99.90
10282;DHT22;5186;59.472;18.048;2024-02-04T10:47:38;3.80;99.90
10282;DHT22;5186;59.472;18.048;2024-02-04T10:50:07;3.80;99.90
10282;DHT22;5186;59.472;18.048;2024-02-04T10:52:38;3.80;99.90
10282;DHT22;5186;59.472;18.048;2024-02-04T10:55:11;3.80;99.90
10282;DHT22;5186;59.472;18.048;2024-02-04T10:57:40;3.80;99.90
10282;DHT22;5186;59.472;18.048;2024-02-04T11:00:06;3.80;99.90
10282;DHT22;5186;59.472;18.048;2024-02-04T11:02:34;3.80;99.90
10282;DHT22;5186;59.472;18.048;2024-02-04T11:05:03;3.80;99.90
10282;DHT22;5186;59.472;18.048;2024-02-04T11:07:33;3.80;99.90
10282;DHT22;5186;59.472;18.048;2024-02-04T11:10:00;3.80;99.90
10282;DHT22;5186;59.472;18.048;2024-02-04T11:12:28;3.80;99.90
10282;DHT22;5186;59.472;18.048;2024-02-04T11:14:56;3.90;99.90
10282;DHT22;5186;59.472;18.048;2024-02-04T11:28:13;4.00;99.90
10282;DHT22;5186;59.472;18.048;2024-02-04T11:30:38;4.10;99.90
10282;DHT22;5186;59.472;18.048;2024-02-04T11:33:05;4.20;99.90
10282;DHT22;5186;59.472;18.048;2024-02-04T11:35:34;4.30;99.90
10282;DHT22;5186;59.472;18.048;2024-02-04T11:38:00;4.30;99.90
10282;DHT22;5186;59.472;18.048;2024-02-04T11:40:37;4.30;99.90
10282;DHT22;5186;59.472;18.048;2024-02-04T11:43:06;4.30;99.90
10282;DHT22;5186;59.472;18.048;2024-02-04T11:45:32;4.40;99.90
10282;DHT22;5186;59.472;18.048;2024-02-04T11:48:01;4.40;99.90
10282;DHT22;5186;59.472;18.048;2024-02-04T11:50:28;4.50;99.90
10282;DHT22;5186;59.472;18.048;2024-02-04T11:53:11;4.50;99.90
10282;DHT22;5186;59.472;18.048;2024-02-04T11:55:40;4.50;99.90
10282;DHT22;5186;59.472;18.048;2024-02-04T11:58:06;4.50;99.90
10282;DHT22;5186;59.472;18.048;2024-02-04T12:00:35;4.50;99.90
10282;DHT22;5186;59.472;18.048;2024-02-04T12:03:05;4.60;99.90
10282;DHT22;5186;59.472;18.048;2024-02-04T12:05:33;4.60;99.90
10282;DHT22;5186;59.472;18.048;2024-02-04T12:08:05;4.60;99.90
10282;DHT22;5186;59.472;18.048;2024-02-04T12:10:33;4.60;99.90
10282;DHT22;5186;59.472;18.048;2024-02-04T12:13:00;4.60;99.90
10282;DHT22;5186;59.472;18.048;2024-02-04T12:15:28;4.60;99.90
10282;DHT22;5186;59.472;18.048;2024-02-04T12:17:54;4.60;99.90
10282;DHT22;5186;59.472;18.048;2024-02-04T12:20:19;4.60;99.90
10282;DHT22;5186;59.472;18.048;2024-02-04T12:22:45;4.60;99.90
10282;DHT22;5186;59.472;18.048;2024-02-04T12:25:11;4.60;99.90
10282;DHT22;5186;59.472;18.048;2024-02-04T12:27:37;4.60;99.90
10282;DHT22;5186;59.472;18.048;2024-02-04T12:30:04;4.70;99.90
10282;DHT22;5186;59.472;18.048;2024-02-04T12:32:31;4.70;99.90
10282;DHT22;5186;59.472;18.048;2024-02-04T12:34:56;4.70;99.90
10282;DHT22;5186;59.472;18.048;2024-02-04T12:37:22;4.70;99.90
10282;DHT22;5186;59.472;18.048;2024-02-04T12:39:47;4.70;99.90
10282;DHT22;5186;59.472;18.048;2024-02-04T12:42:17;4.70;99.90
10282;DHT22;5186;59.472;18.048;2024-02-04T12:44:47;4.70;99.90
10282;DHT22;5186;59.472;18.048;2024-02-04T12:47:14;4.70;99.90
10282;DHT22;5186;59.472;18.048;2024-02-04T12:49:40;4.70;99.90
10282;DHT22;5186;59.472;18.048;2024-02-04T12:52:07;4.80;99.90
10282;DHT22;5186;59.472;18.048;2024-02-04T12:54:45;4.80;99.90
10282;DHT22;5186;59.472;18.048;2024-02-04T12:57:21;4.80;99.90
10282;DHT22;5186;59.472;18.048;2024-02-04T12:59:47;4.80;99.90
10282;DHT22;5186;59.472;18.048;2024-02-04T13:02:14;4.80;99.90
10282;DHT22;5186;59.472;18.048;2024-02-04T13:04:41;4.70;99.90
10282;DHT22;5186;59.472;18.048;2024-02-04T13:07:09;4.80;99.90
10282;DHT22;5186;59.472;18.048;2024-02-04T13:09:36;4.70;99.90
10282;DHT22;5186;59.472;18.048;2024-02-04T13:12:06;4.70;99.90
10282;DHT22;5186;59.472;18.048;2024-02-04T13:14:34;4.70;99.90
10282;DHT22;5186;59.472;18.048;2024-02-04T13:17:00;4.70;99.90
10282;DHT22;5186;59.472;18.048;2024-02-04T13:19:34;4.70;99.90
10282;DHT22;5186;59.472;18.048;2024-02-04T13:22:01;4.70;99.90
10282;DHT22;5186;59.472;18.048;2024-02-04T13:24:29;4.70;99.90
10282;DHT22;5186;59.472;18.048;2024-02-04T13:26:54;4.70;99.90
10282;DHT22;5186;59.472;18.048;2024-02-04T13:29:20;4.70;99.90
10282;DHT22;5186;59.472;18.048;2024-02-04T13:31:45;4.70;99.90
10282;DHT22;5186;59.472;18.048;2024-02-04T13:34:11;4.70;99.90
10282;DHT22;5186;59.472;18.048;2024-02-04T13:36:37;4.70;99.90
10282;DHT22;5186;59.472;18.048;2024-02-04T13:39:03;4.70;99.90
10282;DHT22;5186;59.472;18.048;2024-02-04T13:41:31;4.70;99.90
10282;DHT22;5186;59.472;18.048;2024-02-04T13:43:57;4.70;99.90
10282;DHT22;5186;59.472;18.048;2024-02-04T13:46:22;4.60;99.90
10282;DHT22;5186;59.472;18.048;2024-02-04T13:48:48;4.60;99.90
10282;DHT22;5186;59.472;18.048;2024-02-04T13:51:14;4.60;99.90
10282;DHT22;5186;59.472;18.048;2024-02-04T13:53:39;4.50;99.90
10282;DHT22;5186;59.472;18.048;2024-02-04T13:56:05;4.50;99.90
10282;DHT22;5186;59.472;18.048;2024-02-04T13:58:31;4.40;99.90
10282;DHT22;5186;59.472;18.048;2024-02-04T14:00:56;4.40;99.90
10282;DHT22;5186;59.472;18.048;2024-02-04T14:03:22;4.40;99.90
10282;DHT22;5186;59.472;18.048;2024-02-04T14:05:48;4.40;99.90
10282;DHT22;5186;59.472;18.048;2024-02-04T14:08:15;4.40;99.90
10282;DHT22;5186;59.472;18.048;2024-02-04T14:10:40;4.40;99.90
10282;DHT22;5186;59.472;18.048;2024-02-04T14:13:06;4.40;99.90
10282;DHT22;5186;59.472;18.048;2024-02-04T14:15:32;4.40;99.90
10282;DHT22;5186;59.472;18.048;2024-02-04T14:17:59;4.40;99.90
10282;DHT22;5186;59.472;18.048;2024-02-04T14:20:25;4.30;99.90
10282;DHT22;5186;59.472;18.048;2024-02-04T14:22:50;4.30;99.90
10282;DHT22;5186;59.472;18.048;2024-02-04T14:25:16;4.20;99.90
10282;DHT22;5186;59.472;18.048;2024-02-04T14:27:42;4.20;99.90
10282;DHT22;5186;59.472;18.048;2024-02-04T14:30:08;4.20;99.90
10282;DHT22;5186;59.472;18.048;2024-02-04T14:32:34;4.10;99.90
10282;DHT22;5186;59.472;18.048;2024-02-04T14:35:00;4.10;99.90
10282;DHT22;5186;59.472;18.048;2024-02-04T14:37:25;4.10;99.90
10282;DHT22;5186;59.472;18.048;2024-02-04T14:39:51;4.10;99.90
10282;DHT22;5186;59.472;18.048;2024-02-04T14:42:19;4.10;99.90
10282;DHT22;5186;59.472;18.048;2024-02-04T14:44:45;4.00;99.90
10282;DHT22;5186;59.472;18.048;2024-02-04T14:47:10;4.00;99.90
10282;DHT22;5186;59.472;18.048;2024-02-04T14:49:36;3.90;99.90
10282;DHT22;5186;59.472;18.048;2024-02-04T14:52:02;3.90;99.90
10282;DHT22;5186;59.472;18.048;2024-02-04T14:54:28;3.80;99.90
10282;DHT22;5186;59.472;18.048;2024-02-04T14:56:53;3.70;99.90
10282;DHT22;5186;59.472;18.048;2024-02-04T14:59:19;3.80;99.90
10282;DHT22;5186;59.472;18.048;2024-02-04T15:01:45;3.80;99.90
10282;DHT22;5186;59.472;18.048;2024-02-04T15:04:14;3.80;99.90
10282;DHT22;5186;59.472;18.048;2024-02-04T15:06:41;3.70;99.90
10282;DHT22;5186;59.472;18.048;2024-02-04T15:09:07;3.70;99.90
10282;DHT22;5186;59.472;18.048;2024-02-04T15:11:32;3.70;99.90
10282;DHT22;5186;59.472;18.048;2024-02-04T15:14:00;3.80;99.90
10282;DHT22;5186;59.472;18.048;2024-02-04T15:16:26;3.70;99.90
10282;DHT22;5186;59.472;18.048;2024-02-04T15:18:51;3.60;99.90
10282;DHT22;5186;59.472;18.048;2024-02-04T15:21:17;3.60;99.90
10282;DHT22;5186;59.472;18.048;2024-02-04T15:23:43;3.60;99.90
10282;DHT22;5186;59.472;18.048;2024-02-04T15:26:12;3.50;99.90
10282;DHT22;5186;59.472;18.048;2024-02-04T15:28:41;3.50;99.90
10282;DHT22;5186;59.472;18.048;2024-02-04T15:31:07;3.40;99.90
10282;DHT22;5186;59.472;18.048;2024-02-04T15:33:34;3.40;99.90
10282;DHT22;5186;59.472;18.048;2024-02-04T15:35:59;3.40;99.90
10282;DHT22;5186;59.472;18.048;2024-02-04T15:38:26;3.30;99.90
10282;DHT22;5186;59.472;18.048;2024-02-04T15:40:54;3.30;99.90
10282;DHT22;5186;59.472;18.048;2024-02-04T15:43:20;3.30;99.90
10282;DHT22;5186;59.472;18.048;2024-02-04T15:45:46;3.30;99.90
10282;DHT22;5186;59.472;18.048;2024-02-04T15:48:17;3.20;99.90
10282;DHT22;5186;59.472;18.048;2024-02-04T15:50:43;3.20;99.90
10282;DHT22;5186;59.472;18.048;2024-02-04T15:53:09;3.20;99.90
10282;DHT22;5186;59.472;18.048;2024-02-04T15:55:35;3.10;99.90